sensor_id;sensor_type;location;lat;lon;timestamp;pressure;altitude;pressure_sealevel;temperature;humidity
75460;BME280;64039;53.060;9.342;2022-12-11T00:01:56;100861.63;;;-1.25;100.00
75460;BME280;64039;53.060;9.342;2022-12-11T00:04:22;100850.97;;;-1.20;100.00
75460;BME280;64039;53.060;9.342;2022-12-11T00:06:48;100859.31;;;-1.22;100.00
75460;BME280;64039;53.060;9.342;2022-12-11T00:09:19;100855.38;;;-1.17;100.00
75460;BME280;64039;53.060;9.342;2022-12-11T00:11:45;100862.91;;;-1.07;100.00
75460;BME280;64039;53.060;9.342;2022-12-11T00:14:11;100858.94;;;-1.15;100.00
75460;BME280;64039;53.060;9.342;2022-12-11T00:16:37;100861.19;;;-1.20;100.00
75460;BME280;64039;53.060;9.342;2022-12-11T00:19:03;100854.53;;;-1.18;100.00
75460;BME280;64039;53.060;9.342;2022-12-11T00:21:28;100850.19;;;-1.19;100.00
75460;BME280;64039;53.060;9.342;2022-12-11T00:23:54;100853.84;;;-1.15;100.00
75460;BME280;64039;53.060;9.342;2022-12-11T00:26:20;100854.00;;;-1.37;100.00
75460;BME280;64039;53.060;9.342;2022-12-11T00:28:45;100849.75;;;-1.25;100.00
75460;BME280;64039;53.060;9.342;2022-12-11T00:31:17;100853.59;;;-1.44;100.00
75460;BME280;64039;53.060;9.342;2022-12-11T00:33:44;100858.72;;;-1.18;100.00
75460;BME280;64039;53.060;9.342;2022-12-11T00:36:11;100867.38;;;-1.16;100.00
75460;BME280;64039;53.060;9.342;2022-12-11T00:38:37;100858.84;;;-1.29;100.00
75460;BME280;64039;53.060;9.342;2022-12-11T00:41:02;100863.09;;;-1.29;100.00
75460;BME280;64039;53.060;9.342;2022-12-11T00:43:28;100856.25;;;-1.42;100.00
75460;BME280;64039;53.060;9.342;2022-12-11T00:45:53;100854.91;;;-1.49;100.00
75460;BME280;64039;53.060;9.342;2022-12-11T00:48:19;100857.13;;;-1.53;100.00
75460;BME280;64039;53.060;9.342;2022-12-11T00:50:45;100857.69;;;-1.46;100.00
75460;BME280;64039;53.060;9.342;2022-12-11T00:53:10;100854.41;;;-1.56;100.00
75460;BME280;64039;53.060;9.342;2022-12-11T00:55:38;100856.16;;;-1.44;100.00
75460;BME280;64039;53.060;9.342;2022-12-11T00:58:04;100856.78;;;-1.46;100.00
75460;BME280;64039;53.060;9.342;2022-12-11T01:00:29;100853.91;;;-1.39;100.00
75460;BME280;64039;53.060;9.342;2022-12-11T01:02:55;100845.31;;;-1.28;100.00
75460;BME280;64039;53.060;9.342;2022-12-11T01:05:20;100845.03;;;-1.44;100.00
75460;BME280;64039;53.060;9.342;2022-12-11T01:07:46;100846.88;;;-1.30;100.00
75460;BME280;64039;53.060;9.342;2022-12-11T01:10:12;100851.88;;;-1.31;100.00
75460;BME280;64039;53.060;9.342;2022-12-11T01:12:56;100852.78;;;-1.31;100.00
75460;BME280;64039;53.060;9.342;2022-12-11T01:15:25;100857.34;;;-1.38;100.00
75460;BME280;64039;53.060;9.342;2022-12-11T01:17:52;100860.63;;;-1.28;100.00
75460;BME280;64039;53.060;9.342;2022-12-11T01:20:19;100861.13;;;-1.45;100.00
75460;BME280;64039;53.060;9.342;2022-12-11T01:22:45;100865.44;;;-1.44;100.00
75460;BME280;64039;53.060;9.342;2022-12-11T01:25:11;100872.78;;;-1.49;100.00
75460;BME280;64039;53.060;9.342;2022-12-11T01:27:37;100867.34;;;-1.53;100.00
75460;BME280;64039;53.060;9.342;2022-12-11T01:30:05;100864.25;;;-1.49;100.00
75460;BME280;64039;53.060;9.342;2022-12-11T01:32:34;100865.34;;;-1.46;100.00
75460;BME280;64039;53.060;9.342;2022-12-11T01:35:01;100868.44;;;-1.38;100.00
75460;BME280;64039;53.060;9.342;2022-12-11T01:37:27;100871.31;;;-1.33;100.00
75460;BME280;64039;53.060;9.342;2022-12-11T01:39:52;100873.53;;;-1.38;100.00
75460;BME280;64039;53.060;9.342;2022-12-11T01:42:19;100862.44;;;-1.38;100.00
75460;BME280;64039;53.060;9.342;2022-12-11T01:47:10;100867.31;;;-1.42;100.00
75460;BME280;64039;53.060;9.342;2022-12-11T01:49:36;100860.69;;;-1.51;100.00
75460;BME280;64039;53.060;9.342;2022-12-11T01:52:17;100863.03;;;-1.54;100.00
75460;BME280;64039;53.060;9.342;2022-12-11T01:54:44;100869.94;;;-1.65;100.00
75460;BME280;64039;53.060;9.342;2022-12-11T01:57:12;100868.94;;;-1.55;100.00
75460;BME280;64039;53.060;9.342;2022-12-11T01:59:42;100865.34;;;-1.46;100.00
75460;BME280;64039;53.060;9.342;2022-12-11T02:02:28;100867.00;;;-1.46;100.00
75460;BME280;64039;53.060;9.342;2022-12-11T02:04:55;100848.16;;;-1.48;100.00
75460;BME280;64039;53.060;9.342;2022-12-11T02:07:22;100851.06;;;-1.55;100.00
75460;BME280;64039;53.060;9.342;2022-12-11T02:09:48;100850.81;;;-1.47;100.00
75460;BME280;64039;53.060;9.342;2022-12-11T02:17:25;100852.09;;;-1.28;100.00
75460;BME280;64039;53.060;9.342;2022-12-11T02:22:47;100855.00;;;-1.35;100.00
75460;BME280;64039;53.060;9.342;2022-12-11T02:30:36;100859.78;;;-1.40;100.00
75460;BME280;64039;53.060;9.342;2022-12-11T02:33:04;100859.22;;;-1.36;100.00
75460;BME280;64039;53.060;9.342;2022-12-11T02:35:36;100852.22;;;-1.38;100.00
75460;BME280;64039;53.060;9.342;2022-12-11T02:38:17;100852.88;;;-1.29;100.00
75460;BME280;64039;53.060;9.342;2022-12-11T02:40:46;100856.78;;;-1.46;100.00
75460;BME280;64039;53.060;9.342;2022-12-11T02:43:15;100851.34;;;-1.51;100.00
75460;BME280;64039;53.060;9.342;2022-12-11T02:45:43;100853.16;;;-1.62;100.00
75460;BME280;64039;53.060;9.342;2022-12-11T02:48:10;100852.97;;;-1.65;100.00
75460;BME280;64039;53.060;9.342;2022-12-11T02:50:42;100850.81;;;-1.47;100.00
75460;BME280;64039;53.060;9.342;2022-12-11T02:53:12;100849.59;;;-1.40;100.00
75460;BME280;64039;53.060;9.342;2022-12-11T02:55:42;100846.06;;;-1.54;100.00
75460;BME280;64039;53.060;9.342;2022-12-11T02:58:20;100846.84;;;-1.55;100.00
75460;BME280;64039;53.060;9.342;2022-12-11T03:00:46;100845.97;;;-1.55;100.00
75460;BME280;64039;53.060;9.342;2022-12-11T03:03:12;100843.28;;;-1.57;100.00
75460;BME280;64039;53.060;9.342;2022-12-11T03:05:39;100841.38;;;-1.48;100.00
75460;BME280;64039;53.060;9.342;2022-12-11T03:08:05;100841.69;;;-1.43;100.00
75460;BME280;64039;53.060;9.342;2022-12-11T03:10:31;100842.91;;;-1.38;100.00
75460;BME280;64039;53.060;9.342;2022-12-11T03:12:57;100845.94;;;-1.44;100.00
75460;BME280;64039;53.060;9.342;2022-12-11T03:15:53;100838.06;;;-1.59;100.00
75460;BME280;64039;53.060;9.342;2022-12-11T03:21:33;100841.47;;;-1.46;100.00
75460;BME280;64039;53.060;9.342;2022-12-11T03:24:19;100845.81;;;-1.45;100.00
75460;BME280;64039;53.060;9.342;2022-12-11T03:26:54;100840.50;;;-1.48;100.00
75460;BME280;64039;53.060;9.342;2022-12-11T03:29:25;100832.06;;;-1.47;100.00
75460;BME280;64039;53.060;9.342;2022-12-11T03:32:12;100830.16;;;-1.50;100.00
75460;BME280;64039;53.060;9.342;2022-12-11T03:34:43;100826.84;;;-1.49;100.00
75460;BME280;64039;53.060;9.342;2022-12-11T03:37:12;100829.50;;;-1.47;100.00
75460;BME280;64039;53.060;9.342;2022-12-11T03:39:43;100822.09;;;-1.56;100.00
75460;BME280;64039;53.060;9.342;2022-12-11T03:42:11;100827.09;;;-1.58;100.00
75460;BME280;64039;53.060;9.342;2022-12-11T03:44:39;100826.63;;;-1.52;100.00
75460;BME280;64039;53.060;9.342;2022-12-11T03:47:07;100834.16;;;-1.53;100.00
75460;BME280;64039;53.060;9.342;2022-12-11T03:49:37;100834.06;;;-1.55;100.00
75460;BME280;64039;53.060;9.342;2022-12-11T03:52:05;100830.72;;;-1.42;100.00
75460;BME280;64039;53.060;9.342;2022-12-11T03:54:32;100834.16;;;-1.53;100.00
75460;BME280;64039;53.060;9.342;2022-12-11T03:56:59;100829.38;;;-1.49;100.00
75460;BME280;64039;53.060;9.342;2022-12-11T03:59:26;100834.50;;;-1.49;100.00
75460;BME280;64039;53.060;9.342;2022-12-11T04:01:51;100832.88;;;-1.60;100.00
75460;BME280;64039;53.060;9.342;2022-12-11T04:04:17;100830.84;;;-1.52;100.00
75460;BME280;64039;53.060;9.342;2022-12-11T04:06:42;100833.38;;;-1.52;100.00
75460;BME280;64039;53.060;9.342;2022-12-11T04:09:08;100838.97;;;-1.70;100.00
75460;BME280;64039;53.060;9.342;2022-12-11T04:11:33;100833.19;;;-1.55;100.00
75460;BME280;64039;53.060;9.342;2022-12-11T04:14:10;100828.50;;;-1.49;100.00
75460;BME280;64039;53.060;9.342;2022-12-11T04:16:55;100829.28;;;-1.50;100.00
75460;BME280;64039;53.060;9.342;2022-12-11T04:19:22;100825.84;;;-1.51;100.00
75460;BME280;64039;53.060;9.342;2022-12-11T04:22:06;100824.50;;;-1.46;100.00
75460;BME280;64039;53.060;9.342;2022-12-11T04:24:50;100829.22;;;-1.64;100.00
75460;BME280;64039;53.060;9.342;2022-12-11T04:27:16;100835.09;;;-1.65;100.00
75460;BME280;64039;53.060;9.342;2022-12-11T04:30:04;100841.31;;;-1.61;100.00
75460;BME280;64039;53.060;9.342;2022-12-11T04:32:31;100838.75;;;-1.61;100.00
75460;BME280;64039;53.060;9.342;2022-12-11T04:34:56;100842.59;;;-1.54;100.00
75460;BME280;64039;53.060;9.342;2022-12-11T04:37:22;100845.28;;;-1.53;100.00
75460;BME280;64039;53.060;9.342;2022-12-11T04:39:47;100845.63;;;-1.60;100.00
75460;BME280;64039;53.060;9.342;2022-12-11T04:42:13;100846.59;;;-1.58;100.00
75460;BME280;64039;53.060;9.342;2022-12-11T04:44:38;100842.41;;;-1.58;100.00
75460;BME280;64039;53.060;9.342;2022-12-11T04:47:04;100843.19;;;-1.59;100.00
75460;BME280;64039;53.060;9.342;2022-12-11T04:49:29;100839.66;;;-1.72;100.00
75460;BME280;64039;53.060;9.342;2022-12-11T04:51:55;100836.22;;;-1.73;100.00
75460;BME280;64039;53.060;9.342;2022-12-11T04:54:20;100837.31;;;-1.69;100.00
75460;BME280;64039;53.060;9.342;2022-12-11T04:56:46;100837.66;;;-1.65;100.00
75460;BME280;64039;53.060;9.342;2022-12-11T04:59:11;100834.00;;;-1.68;100.00
75460;BME280;64039;53.060;9.342;2022-12-11T05:01:37;100833.53;;;-1.75;100.00
75460;BME280;64039;53.060;9.342;2022-12-11T05:04:02;100833.66;;;-1.73;100.00
75460;BME280;64039;53.060;9.342;2022-12-11T05:06:27;100840.19;;;-1.65;100.00
75460;BME280;64039;53.060;9.342;2022-12-11T05:08:53;100837.06;;;-1.61;100.00
75460;BME280;64039;53.060;9.342;2022-12-11T05:11:18;100838.28;;;-1.67;100.00
75460;BME280;64039;53.060;9.342;2022-12-11T05:13:44;100833.31;;;-1.66;100.00
75460;BME280;64039;53.060;9.342;2022-12-11T05:16:12;100837.53;;;-1.66;100.00
75460;BME280;64039;53.060;9.342;2022-12-11T05:18:38;100836.41;;;-1.70;100.00
75460;BME280;64039;53.060;9.342;2022-12-11T05:21:06;100837.06;;;-1.61;100.00
75460;BME280;64039;53.060;9.342;2022-12-11T05:23:32;100838.84;;;-1.60;100.00
75460;BME280;64039;53.060;9.342;2022-12-11T05:26:01;100834.41;;;-1.62;100.00
75460;BME280;64039;53.060;9.342;2022-12-11T05:28:28;100833.09;;;-1.69;100.00
75460;BME280;64039;53.060;9.342;2022-12-11T05:30:55;100833.41;;;-1.64;100.00
75460;BME280;64039;53.060;9.342;2022-12-11T05:33:21;100839.19;;;-1.67;100.00
75460;BME280;64039;53.060;9.342;2022-12-11T05:35:47;100845.19;;;-1.66;100.00
75460;BME280;64039;53.060;9.342;2022-12-11T05:38:12;100835.66;;;-1.81;100.00
75460;BME280;64039;53.060;9.342;2022-12-11T05:40:38;100837.31;;;-1.69;100.00
75460;BME280;64039;53.060;9.342;2022-12-11T05:43:03;100832.75;;;-1.74;100.00
75460;BME280;64039;53.060;9.342;2022-12-11T05:45:29;100823.47;;;-1.85;100.00
75460;BME280;64039;53.060;9.342;2022-12-11T05:47:54;100827.56;;;-1.75;100.00
75460;BME280;64039;53.060;9.342;2022-12-11T05:50:20;100827.47;;;-1.77;100.00
75460;BME280;64039;53.060;9.342;2022-12-11T05:52:45;100826.22;;;-1.82;100.00
75460;BME280;64039;53.060;9.342;2022-12-11T05:55:10;100828.91;;;-1.68;100.00
75460;BME280;64039;53.060;9.342;2022-12-11T05:57:36;100823.22;;;-1.76;100.00
75460;BME280;64039;53.060;9.342;2022-12-11T06:00:03;100821.69;;;-1.74;100.00
75460;BME280;64039;53.060;9.342;2022-12-11T06:02:28;100832.69;;;-1.87;100.00
75460;BME280;64039;53.060;9.342;2022-12-11T06:04:55;100828.91;;;-1.92;100.00
75460;BME280;64039;53.060;9.342;2022-12-11T06:07:20;100822.13;;;-1.80;100.00
75460;BME280;64039;53.060;9.342;2022-12-11T06:09:46;100821.47;;;-1.77;100.00
75460;BME280;64039;53.060;9.342;2022-12-11T06:12:11;100826.91;;;-1.84;100.00
75460;BME280;64039;53.060;9.342;2022-12-11T06:14:37;100828.78;;;-1.82;100.00
75460;BME280;64039;53.060;9.342;2022-12-11T06:17:02;100834.00;;;-1.68;100.00
75460;BME280;64039;53.060;9.342;2022-12-11T06:19:28;100826.44;;;-1.67;100.00
75460;BME280;64039;53.060;9.342;2022-12-11T06:21:53;100825.34;;;-1.70;100.00
75460;BME280;64039;53.060;9.342;2022-12-11T06:24:19;100837.13;;;-1.84;100.00
75460;BME280;64039;53.060;9.342;2022-12-11T06:26:44;100826.47;;;-1.79;100.00
75460;BME280;64039;53.060;9.342;2022-12-11T06:29:10;100825.56;;;-1.79;100.00
75460;BME280;64039;53.060;9.342;2022-12-11T06:31:35;100822.91;;;-1.81;100.00
75460;BME280;64039;53.060;9.342;2022-12-11T06:34:01;100825.13;;;-1.85;100.00
75460;BME280;64039;53.060;9.342;2022-12-11T06:36:26;100820.03;;;-1.85;100.00
75460;BME280;64039;53.060;9.342;2022-12-11T06:38:51;100826.34;;;-1.68;100.00
75460;BME280;64039;53.060;9.342;2022-12-11T06:41:19;100833.19;;;-1.55;100.00
75460;BME280;64039;53.060;9.342;2022-12-11T06:43:45;100828.31;;;-1.64;100.00
75460;BME280;64039;53.060;9.342;2022-12-11T06:46:13;100831.13;;;-1.73;100.00
75460;BME280;64039;53.060;9.342;2022-12-11T06:48:39;100824.44;;;-1.71;100.00
75460;BME280;64039;53.060;9.342;2022-12-11T06:51:14;100830.78;;;-1.66;100.00
75460;BME280;64039;53.060;9.342;2022-12-11T06:53:40;100825.88;;;-1.75;100.00
75460;BME280;64039;53.060;9.342;2022-12-11T06:56:14;100834.41;;;-1.62;100.00
75460;BME280;64039;53.060;9.342;2022-12-11T06:58:40;100834.06;;;-1.55;100.00
75460;BME280;64039;53.060;9.342;2022-12-11T07:01:21;100833.53;;;-1.63;100.00
75460;BME280;64039;53.060;9.342;2022-12-11T07:03:48;100836.28;;;-1.60;100.00
75460;BME280;64039;53.060;9.342;2022-12-11T07:06:14;100836.19;;;-1.61;100.00
75460;BME280;64039;53.060;9.342;2022-12-11T07:08:40;100835.53;;;-1.59;100.00
75460;BME280;64039;53.060;9.342;2022-12-11T07:11:08;100846.72;;;-1.56;100.00
75460;BME280;64039;53.060;9.342;2022-12-11T07:13:34;100840.50;;;-1.48;100.00
75460;BME280;64039;53.060;9.342;2022-12-11T07:16:01;100839.31;;;-1.65;100.00
75460;BME280;64039;53.060;9.342;2022-12-11T07:18:29;100838.31;;;-1.55;100.00
75460;BME280;64039;53.060;9.342;2022-12-11T07:20:57;100836.88;;;-1.64;100.00
75460;BME280;64039;53.060;9.342;2022-12-11T07:23:25;100834.41;;;-1.62;100.00
75460;BME280;64039;53.060;9.342;2022-12-11T07:25:50;100841.72;;;-1.55;100.00
75460;BME280;64039;53.060;9.342;2022-12-11T07:28:15;100846.28;;;-1.63;100.00
75460;BME280;64039;53.060;9.342;2022-12-11T07:30:41;100848.38;;;-1.57;100.00
75460;BME280;64039;53.060;9.342;2022-12-11T07:33:06;100850.16;;;-1.56;100.00
75460;BME280;64039;53.060;9.342;2022-12-11T07:35:35;100847.97;;;-1.63;100.00
75460;BME280;64039;53.060;9.342;2022-12-11T07:38:00;100838.09;;;-1.70;100.00
75460;BME280;64039;53.060;9.342;2022-12-11T07:40:26;100841.75;;;-1.67;100.00
75460;BME280;64039;53.060;9.342;2022-12-11T07:42:52;100838.94;;;-1.58;100.00
75460;BME280;64039;53.060;9.342;2022-12-11T07:45:17;100840.19;;;-1.65;100.00
75460;BME280;64039;53.060;9.342;2022-12-11T07:47:43;100842.28;;;-1.47;100.00
75460;BME280;64039;53.060;9.342;2022-12-11T07:50:09;100842.81;;;-1.51;100.00
75460;BME280;64039;53.060;9.342;2022-12-11T07:52:34;100846.84;;;-1.67;100.00
75460;BME280;64039;53.060;9.342;2022-12-11T07:55:00;100843.09;;;-1.60;100.00
75460;BME280;64039;53.060;9.342;2022-12-11T07:57:26;100841.16;;;-1.51;100.00
75460;BME280;64039;53.060;9.342;2022-12-11T07:59:52;100839.31;;;-1.77;100.00
75460;BME280;64039;53.060;9.342;2022-12-11T08:02:17;100840.06;;;-1.66;100.00
75460;BME280;64039;53.060;9.342;2022-12-11T08:04:43;100844.38;;;-1.53;100.00
75460;BME280;64039;53.060;9.342;2022-12-11T08:07:08;100846.38;;;-1.49;100.00
75460;BME280;64039;53.060;9.342;2022-12-11T08:09:33;100852.28;;;-1.62;100.00
75460;BME280;64039;53.060;9.342;2022-12-11T08:11:59;100847.84;;;-1.53;100.00
75460;BME280;64039;53.060;9.342;2022-12-11T08:14:24;100854.50;;;-1.55;100.00
75460;BME280;64039;53.060;9.342;2022-12-11T08:16:50;100850.13;;;-1.44;100.00
75460;BME280;64039;53.060;9.342;2022-12-11T08:19:16;100841.16;;;-1.39;100.00
75460;BME280;64039;53.060;9.342;2022-12-11T08:21:43;100852.56;;;-1.34;100.00
75460;BME280;64039;53.060;9.342;2022-12-11T08:24:09;100847.22;;;-1.37;100.00
75460;BME280;64039;53.060;9.342;2022-12-11T08:26:35;100846.72;;;-1.56;100.00
75460;BME280;64039;53.060;9.342;2022-12-11T08:29:00;100847.47;;;-1.46;100.00
75460;BME280;64039;53.060;9.342;2022-12-11T08:31:27;100853.47;;;-1.45;100.00
75460;BME280;64039;53.060;9.342;2022-12-11T08:33:53;100853.47;;;-1.45;100.00
75460;BME280;64039;53.060;9.342;2022-12-11T08:36:21;100851.81;;;-1.45;100.00
75460;BME280;64039;53.060;9.342;2022-12-11T08:38:47;100850.81;;;-1.47;100.00
75460;BME280;64039;53.060;9.342;2022-12-11T08:41:24;100844.84;;;-1.47;100.00
75460;BME280;64039;53.060;9.342;2022-12-11T08:43:50;100846.38;;;-1.49;100.00
75460;BME280;64039;53.060;9.342;2022-12-11T08:46:23;100853.44;;;-1.33;100.00
75460;BME280;64039;53.060;9.342;2022-12-11T08:48:49;100842.25;;;-1.35;100.00
75460;BME280;64039;53.060;9.342;2022-12-11T08:51:18;100850.41;;;-1.28;100.00
75460;BME280;64039;53.060;9.342;2022-12-11T08:53:45;100845.13;;;-1.31;100.00
75460;BME280;64039;53.060;9.342;2022-12-11T08:56:14;100843.84;;;-1.24;100.00
75460;BME280;64039;53.060;9.342;2022-12-11T08:58:40;100849.69;;;-1.38;100.00
75460;BME280;64039;53.060;9.342;2022-12-11T09:01:14;100857.13;;;-1.42;100.00
75460;BME280;64039;53.060;9.342;2022-12-11T09:03:40;100850.22;;;-1.31;100.00
75460;BME280;64039;53.060;9.342;2022-12-11T09:06:08;100843.06;;;-1.23;100.00
75460;BME280;64039;53.060;9.342;2022-12-11T09:08:34;100847.00;;;-1.28;100.00
75460;BME280;64039;53.060;9.342;2022-12-11T09:11:12;100849.63;;;-1.27;100.00
75460;BME280;64039;53.060;9.342;2022-12-11T09:13:38;100855.75;;;-1.24;100.00
75460;BME280;64039;53.060;9.342;2022-12-11T09:16:06;100854.44;;;-1.31;100.00
75460;BME280;64039;53.060;9.342;2022-12-11T09:18:31;100864.00;;;-1.40;100.00
75460;BME280;64039;53.060;9.342;2022-12-11T09:21:01;100848.50;;;-1.18;100.00
75460;BME280;64039;53.060;9.342;2022-12-11T09:23:27;100848.59;;;-1.17;100.00
75460;BME280;64039;53.060;9.342;2022-12-11T09:25:53;100841.78;;;-1.04;100.00
75460;BME280;64039;53.060;9.342;2022-12-11T09:28:18;100848.28;;;-1.21;100.00
75460;BME280;64039;53.060;9.342;2022-12-11T09:30:44;100842.25;;;-1.10;100.00
75460;BME280;64039;53.060;9.342;2022-12-11T09:33:10;100845.81;;;-1.08;100.00
75460;BME280;64039;53.060;9.342;2022-12-11T09:35:35;100841.78;;;-1.04;100.00
75460;BME280;64039;53.060;9.342;2022-12-11T09:38:02;100843.25;;;-1.08;100.00
75460;BME280;64039;53.060;9.342;2022-12-11T09:40:27;100837.81;;;-1.13;100.00
75460;BME280;64039;53.060;9.342;2022-12-11T09:43:04;100838.88;;;-0.97;100.00
75460;BME280;64039;53.060;9.342;2022-12-11T09:45:32;100836.09;;;-1.00;100.00
75460;BME280;64039;53.060;9.342;2022-12-11T09:47:59;100824.22;;;-1.00;100.00
75460;BME280;64039;53.060;9.342;2022-12-11T09:50:28;100830.22;;;-0.99;100.00
75460;BME280;64039;53.060;9.342;2022-12-11T09:53:06;100828.50;;;-0.87;100.00
75460;BME280;64039;53.060;9.342;2022-12-11T09:58:26;100823.78;;;-0.81;100.00
75460;BME280;64039;53.060;9.342;2022-12-11T10:04:04;100829.34;;;-1.00;100.00
75460;BME280;64039;53.060;9.342;2022-12-11T10:06:42;100828.81;;;-0.82;100.00
75460;BME280;64039;53.060;9.342;2022-12-11T10:12:04;100824.97;;;-0.75;100.00
75460;BME280;64039;53.060;9.342;2022-12-11T10:17:08;100814.56;;;-0.78;99.71
75460;BME280;64039;53.060;9.342;2022-12-11T10:19:37;100810.00;;;-0.83;98.93
75460;BME280;64039;53.060;9.342;2022-12-11T10:22:13;100810.38;;;-0.90;98.59
75460;BME280;64039;53.060;9.342;2022-12-11T10:24:58;100814.47;;;-0.80;98.71
75460;BME280;64039;53.060;9.342;2022-12-11T10:27:37;100804.81;;;-0.71;98.71
75460;BME280;64039;53.060;9.342;2022-12-11T10:30:14;100800.94;;;-0.66;97.62
75460;BME280;64039;53.060;9.342;2022-12-11T10:40:43;100809.47;;;-0.65;97.63
75460;BME280;64039;53.060;9.342;2022-12-11T10:43:09;100805.13;;;-0.66;97.25
75460;BME280;64039;53.060;9.342;2022-12-11T10:45:35;100803.19;;;-0.57;97.65
75460;BME280;64039;53.060;9.342;2022-12-11T10:48:20;100804.09;;;-0.43;97.28
75460;BME280;64039;53.060;9.342;2022-12-11T10:50:56;100807.03;;;-0.64;95.50
75460;BME280;64039;53.060;9.342;2022-12-11T10:53:22;100811.84;;;-0.55;95.78
75460;BME280;64039;53.060;9.342;2022-12-11T10:55:48;100814.72;;;-0.50;97.78
75460;BME280;64039;53.060;9.342;2022-12-11T10:58:23;100804.56;;;-0.49;98.15
75460;BME280;64039;53.060;9.342;2022-12-11T11:03:32;100795.44;;;-0.45;96.98
75460;BME280;64039;53.060;9.342;2022-12-11T11:06:14;100794.66;;;-0.44;96.15
75460;BME280;64039;53.060;9.342;2022-12-11T11:08:44;100792.22;;;-0.42;95.12
75460;BME280;64039;53.060;9.342;2022-12-11T11:11:28;100790.34;;;-0.32;96.09
75460;BME280;64039;53.060;9.342;2022-12-11T11:14:14;100784.13;;;-0.49;95.41
75460;BME280;64039;53.060;9.342;2022-12-11T11:16:42;100779.22;;;-0.32;95.43
75460;BME280;64039;53.060;9.342;2022-12-11T11:19:21;100771.63;;;-0.44;95.58
75460;BME280;64039;53.060;9.342;2022-12-11T11:21:51;100763.56;;;-0.64;95.43
75460;BME280;64039;53.060;9.342;2022-12-11T11:24:31;100762.97;;;-0.59;97.33
75460;BME280;64039;53.060;9.342;2022-12-11T11:26:59;100764.53;;;-0.61;97.85
75460;BME280;64039;53.060;9.342;2022-12-11T11:29:31;100763.94;;;-0.71;97.29
75460;BME280;64039;53.060;9.342;2022-12-11T11:32:13;100761.28;;;-0.72;98.60
75460;BME280;64039;53.060;9.342;2022-12-11T11:34:40;100760.88;;;-0.78;97.50
75460;BME280;64039;53.060;9.342;2022-12-11T11:37:21;100759.19;;;-0.91;97.05
75460;BME280;64039;53.060;9.342;2022-12-11T11:39:48;100759.59;;;-0.85;98.02
75460;BME280;64039;53.060;9.342;2022-12-11T11:42:24;100749.59;;;-0.82;97.91
75460;BME280;64039;53.060;9.342;2022-12-11T11:47:35;100749.09;;;-0.76;98.27
75460;BME280;64039;53.060;9.342;2022-12-11T11:55:43;100756.25;;;-1.23;98.71
75460;BME280;64039;53.060;9.342;2022-12-11T11:58:24;100755.47;;;-1.22;100.00
75460;BME280;64039;53.060;9.342;2022-12-11T12:00:53;100748.59;;;-1.23;98.75
75460;BME280;64039;53.060;9.342;2022-12-11T12:03:22;100753.91;;;-1.20;99.76
75460;BME280;64039;53.060;9.342;2022-12-11T12:08:41;100743.66;;;-0.95;99.72
75460;BME280;64039;53.060;9.342;2022-12-11T12:11:13;100757.19;;;-1.09;99.55
75460;BME280;64039;53.060;9.342;2022-12-11T12:19:42;100754.72;;;-1.07;100.00
75460;BME280;64039;53.060;9.342;2022-12-11T12:25:17;100763.28;;;-1.07;100.00
75460;BME280;64039;53.060;9.342;2022-12-11T12:28:02;100763.41;;;-1.31;100.00
75460;BME280;64039;53.060;9.342;2022-12-11T12:30:43;100759.81;;;-1.07;100.00
75460;BME280;64039;53.060;9.342;2022-12-11T12:33:25;100761.22;;;-0.99;100.00
75460;BME280;64039;53.060;9.342;2022-12-11T12:39:01;100756.72;;;-0.90;100.00
75460;BME280;64039;53.060;9.342;2022-12-11T12:46:45;100756.34;;;-0.83;100.00
75460;BME280;64039;53.060;9.342;2022-12-11T12:49:17;100746.41;;;-0.91;100.00
75460;BME280;64039;53.060;9.342;2022-12-11T12:51:44;100745.13;;;-0.98;100.00
75460;BME280;64039;53.060;9.342;2022-12-11T12:54:15;100751.91;;;-1.24;100.00
75460;BME280;64039;53.060;9.342;2022-12-11T12:56:43;100748.81;;;-1.20;100.00
75460;BME280;64039;53.060;9.342;2022-12-11T12:59:23;100744.31;;;-1.11;100.00
75460;BME280;64039;53.060;9.342;2022-12-11T13:01:54;100747.34;;;-1.16;100.00
75460;BME280;64039;53.060;9.342;2022-12-11T13:07:10;100749.94;;;-1.28;100.00
75460;BME280;64039;53.060;9.342;2022-12-11T13:09:36;100754.00;;;-1.18;100.00
75460;BME280;64039;53.060;9.342;2022-12-11T13:12:11;100737.44;;;-1.12;100.00
75460;BME280;64039;53.060;9.342;2022-12-11T13:14:37;100741.75;;;-1.11;100.00
75460;BME280;64039;53.060;9.342;2022-12-11T13:17:24;100743.03;;;-1.04;100.00
75460;BME280;64039;53.060;9.342;2022-12-11T13:20:15;100747.13;;;-1.19;100.00
75460;BME280;64039;53.060;9.342;2022-12-11T13:23:17;100750.72;;;-1.29;100.00
75460;BME280;64039;53.060;9.342;2022-12-11T13:25:52;100750.31;;;-1.35;100.00
75460;BME280;64039;53.060;9.342;2022-12-11T13:28:25;100751.75;;;-1.14;100.00
75460;BME280;64039;53.060;9.342;2022-12-11T13:33:50;100750.94;;;-1.51;100.00
75460;BME280;64039;53.060;9.342;2022-12-11T13:36:25;100760.63;;;-1.34;100.00
75460;BME280;64039;53.060;9.342;2022-12-11T13:38:54;100755.38;;;-1.23;100.00
75460;BME280;64039;53.060;9.342;2022-12-11T13:41:21;100761.19;;;-1.13;100.00
75460;BME280;64039;53.060;9.342;2022-12-11T13:43:48;100752.81;;;-1.23;100.00
75460;BME280;64039;53.060;9.342;2022-12-11T13:46:19;100755.53;;;-1.34;100.00
75460;BME280;64039;53.060;9.342;2022-12-11T13:48:50;100762.31;;;-1.46;100.00
75460;BME280;64039;53.060;9.342;2022-12-11T13:51:22;100766.50;;;-1.35;100.00
75460;BME280;64039;53.060;9.342;2022-12-11T13:54:02;100758.75;;;-1.36;100.00
75460;BME280;64039;53.060;9.342;2022-12-11T13:56:28;100760.59;;;-1.47;100.00
75460;BME280;64039;53.060;9.342;2022-12-11T13:58:54;100761.50;;;-1.59;100.00
75460;BME280;64039;53.060;9.342;2022-12-11T14:01:28;100763.28;;;-1.58;100.00
75460;BME280;64039;53.060;9.342;2022-12-11T14:04:22;100761.81;;;-1.54;100.00
75460;BME280;64039;53.060;9.342;2022-12-11T14:06:48;100772.84;;;-1.67;100.00